createdAt,value
2022-11-24T00:02:23.220Z,56.27
2022-11-24T00:04:47.038Z,55.20
2022-11-24T00:07:10.684Z,57.33
2022-11-24T00:09:34.332Z,62.50
2022-11-24T00:11:57.950Z,58.90
2022-11-24T00:14:21.580Z,64.13
2022-11-24T00:16:46.529Z,51.53
2022-11-24T00:19:15.761Z,56.90
2022-11-24T00:21:42.038Z,59.73
2022-11-24T00:24:06.427Z,60.40
2022-11-24T00:26:32.130Z,59.93
2022-11-24T00:29:02.230Z,59.80
2022-11-24T00:31:28.135Z,60.03
2022-11-24T00:33:54.771Z,60.47
2022-11-24T00:36:20.046Z,53.10
2022-11-24T00:38:43.805Z,57.37
2022-11-24T00:41:07.738Z,55.93
2022-11-24T00:43:31.299Z,59.83
2022-11-24T00:45:55.083Z,59.17
2022-11-24T00:48:18.750Z,60.10
2022-11-24T00:50:43.807Z,63.30
2022-11-24T00:53:07.438Z,58.60
2022-11-24T00:55:31.123Z,60.03
2022-11-24T00:57:54.680Z,59.03
2022-11-24T01:00:19.726Z,54.17
2022-11-24T01:02:43.315Z,55.43
2022-11-24T01:05:07.873Z,56.73
2022-11-24T01:07:32.856Z,57.97
2022-11-24T01:09:56.633Z,58.57
2022-11-24T01:12:20.158Z,62.93
2022-11-24T01:14:43.878Z,61.60
2022-11-24T01:17:07.422Z,63.80
2022-11-24T01:19:31.009Z,60.40
2022-11-24T01:21:54.656Z,63.13
2022-11-24T01:24:19.975Z,63.30
2022-11-24T01:26:43.670Z,64.97
2022-11-24T01:29:07.426Z,60.43
2022-11-24T01:31:30.966Z,59.87
2022-11-24T01:33:55.273Z,61.43
2022-11-24T01:36:19.069Z,63.47
2022-11-24T01:38:42.801Z,62.03
2022-11-24T01:41:11.334Z,61.40
2022-11-24T01:43:35.595Z,59.67
2022-11-24T01:46:03.838Z,63.27
2022-11-24T01:48:32.542Z,53.27
2022-11-24T01:51:03.615Z,61.83
2022-11-24T01:53:27.554Z,55.73
2022-11-24T01:55:53.038Z,60.97
2022-11-24T01:58:23.574Z,57.47
2022-11-24T02:00:48.026Z,58.10
2022-11-24T02:03:13.255Z,56.73
2022-11-24T02:05:45.036Z,53.90
2022-11-24T02:08:17.990Z,56.67
2022-11-24T02:10:41.580Z,56.80
2022-11-24T02:13:06.031Z,56.97
2022-11-24T02:15:31.452Z,54.53
2022-11-24T02:17:55.102Z,52.23
2022-11-24T02:20:19.590Z,51.20
2022-11-24T02:22:54.242Z,53.97
2022-11-24T02:25:31.336Z,54.67
2022-11-24T02:27:58.430Z,54.23
2022-11-24T02:30:22.307Z,53.73
2022-11-24T02:32:46.031Z,53.27
2022-11-24T02:35:11.918Z,53.70
2022-11-24T02:37:35.542Z,50.80
2022-11-24T02:39:59.073Z,52.53
2022-11-24T02:42:23.199Z,53.50
2022-11-24T02:44:54.402Z,55.77
2022-11-24T02:47:18.377Z,56.10
2022-11-24T02:49:41.980Z,53.13
2022-11-24T02:52:06.310Z,52.20
2022-11-24T02:54:30.050Z,52.90
2022-11-24T02:56:54.195Z,53.23
2022-11-24T02:59:17.759Z,48.87
2022-11-24T03:01:42.764Z,51.47
2022-11-24T03:04:06.523Z,47.10
2022-11-24T03:06:30.185Z,49.70
2022-11-24T03:08:53.736Z,53.30
2022-11-24T03:11:17.348Z,53.53
2022-11-24T03:13:40.926Z,53.20
2022-11-24T03:16:04.628Z,48.63
2022-11-24T03:18:29.611Z,51.57
2022-11-24T03:20:53.206Z,51.63
2022-11-24T03:23:16.772Z,48.03
2022-11-24T03:25:40.567Z,49.97
2022-11-24T03:28:04.278Z,53.73
2022-11-24T03:30:28.231Z,51.67
2022-11-24T03:32:53.547Z,51.13
2022-11-24T03:35:18.670Z,46.67
2022-11-24T03:37:42.330Z,50.60
2022-11-24T03:40:07.454Z,52.30
2022-11-24T03:42:31.026Z,51.00
2022-11-24T03:44:54.622Z,52.63
2022-11-24T03:47:18.222Z,50.40
2022-11-24T03:49:42.388Z,50.07
2022-11-24T03:52:08.358Z,48.30
2022-11-24T03:54:32.341Z,50.20
2022-11-24T03:56:56.157Z,55.13
2022-11-24T03:59:19.750Z,50.23
2022-11-24T04:01:43.382Z,45.90
2022-11-24T04:04:07.276Z,51.30
2022-11-24T04:06:30.857Z,49.17
2022-11-24T04:08:55.834Z,49.63
2022-11-24T04:11:33.218Z,49.10
2022-11-24T04:13:56.814Z,44.03
2022-11-24T04:16:20.389Z,50.77
2022-11-24T04:18:44.100Z,51.27
2022-11-24T04:21:07.764Z,51.17
2022-11-24T04:23:31.352Z,48.73
2022-11-24T04:25:56.243Z,47.07
2022-11-24T04:28:19.870Z,50.73
2022-11-24T04:30:45.064Z,47.80
2022-11-24T04:33:08.924Z,50.80
2022-11-24T04:35:32.499Z,51.97
2022-11-24T04:37:56.139Z,48.83
2022-11-24T04:40:20.443Z,52.30
2022-11-24T04:42:45.463Z,53.37
2022-11-24T04:45:10.057Z,52.40
2022-11-24T04:47:34.159Z,49.00
2022-11-24T04:49:57.748Z,49.80
2022-11-24T04:52:23.843Z,52.17
2022-11-24T04:54:47.635Z,54.30
2022-11-24T04:57:17.523Z,48.63
2022-11-24T04:59:42.495Z,47.50
2022-11-24T05:02:06.136Z,44.33
2022-11-24T05:04:29.992Z,47.70
2022-11-24T05:06:53.659Z,47.60
2022-11-24T05:09:18.742Z,45.77
2022-11-24T05:11:41.292Z,47.17
2022-11-24T05:14:04.866Z,45.47
2022-11-24T05:16:29.881Z,48.37
2022-11-24T05:18:53.445Z,46.93
2022-11-24T05:21:17.088Z,50.13
2022-11-24T05:23:40.642Z,51.90
2022-11-24T05:26:05.129Z,47.97
2022-11-24T05:28:29.132Z,51.17
2022-11-24T05:30:52.670Z,48.47
2022-11-24T05:33:19.264Z,48.23
2022-11-24T05:35:42.929Z,51.43
2022-11-24T05:38:06.599Z,46.47
2022-11-24T05:40:30.361Z,49.87
2022-11-24T05:42:53.888Z,50.57
2022-11-24T05:45:20.447Z,45.67
2022-11-24T05:47:44.361Z,47.03
2022-11-24T05:50:11.454Z,47.17
2022-11-24T05:52:35.188Z,47.07
2022-11-24T05:54:58.763Z,46.83
2022-11-24T05:57:22.297Z,48.47
2022-11-24T05:59:46.198Z,45.50
2022-11-24T06:02:10.321Z,44.70
2022-11-24T06:04:34.379Z,43.37
2022-11-24T06:06:59.546Z,44.90
2022-11-24T06:09:23.115Z,43.87
2022-11-24T06:11:48.291Z,42.53
2022-11-24T06:14:12.059Z,46.00
2022-11-24T06:16:35.703Z,45.67
2022-11-24T06:18:59.379Z,45.27
2022-11-24T06:21:22.910Z,46.33
2022-11-24T06:23:49.329Z,41.70
2022-11-24T06:26:12.902Z,42.27
2022-11-24T06:28:36.819Z,44.50
2022-11-24T06:31:03.781Z,39.77
2022-11-24T06:33:28.584Z,42.07
2022-11-24T06:35:52.150Z,42.73
2022-11-24T06:38:20.118Z,43.07
2022-11-24T06:40:49.093Z,45.00
2022-11-24T06:43:12.587Z,44.13
2022-11-24T06:45:36.261Z,45.57
2022-11-24T06:47:59.804Z,43.73
2022-11-24T06:50:23.648Z,47.47
2022-11-24T06:52:47.210Z,46.47
2022-11-24T06:55:11.131Z,38.03
2022-11-24T06:57:36.267Z,44.47
2022-11-24T07:00:00.074Z,44.03
2022-11-24T07:02:23.620Z,45.40
2022-11-24T07:04:47.211Z,44.47
2022-11-24T07:07:10.843Z,42.13
2022-11-24T07:09:34.488Z,45.87
2022-11-24T07:11:58.016Z,45.43
2022-11-24T07:14:23.250Z,42.50
2022-11-24T07:16:46.817Z,43.27
2022-11-24T07:19:11.439Z,46.07
2022-11-24T07:21:34.986Z,44.60
2022-11-24T07:23:59.656Z,41.20
2022-11-24T07:26:23.639Z,44.03
2022-11-24T07:28:47.386Z,46.43
2022-11-24T07:31:14.985Z,40.97
2022-11-24T07:33:38.909Z,45.47
2022-11-24T07:36:03.331Z,45.97
2022-11-24T07:38:26.932Z,44.63
2022-11-24T07:40:50.568Z,44.90
2022-11-24T07:43:19.845Z,45.53
2022-11-24T07:45:45.603Z,44.03
2022-11-24T07:48:11.877Z,43.50
2022-11-24T07:50:35.759Z,42.33
2022-11-24T07:53:03.458Z,42.67
2022-11-24T07:55:27.059Z,41.13
2022-11-24T07:57:50.604Z,42.10
2022-11-24T08:00:15.458Z,41.80
2022-11-24T08:02:39.230Z,40.50
2022-11-24T08:05:04.229Z,40.53
2022-11-24T08:07:27.860Z,40.90
2022-11-24T08:09:52.216Z,43.07
2022-11-24T08:12:17.531Z,41.37
2022-11-24T08:14:41.074Z,40.53
2022-11-24T08:17:04.752Z,40.83
2022-11-24T08:19:28.349Z,39.87
2022-11-24T08:21:53.320Z,38.50
2022-11-24T08:24:17.161Z,39.83
2022-11-24T08:26:40.696Z,41.07
2022-11-24T08:29:04.300Z,38.90
2022-11-24T08:31:33.529Z,40.83
2022-11-24T08:33:57.763Z,38.73
2022-11-24T08:36:21.523Z,39.37
2022-11-24T08:38:47.257Z,40.43
2022-11-24T08:41:12.705Z,40.73
2022-11-24T08:43:37.105Z,40.80
2022-11-24T08:46:02.318Z,35.17
2022-11-24T08:48:25.924Z,41.90
2022-11-24T08:50:49.481Z,39.97
2022-11-24T08:53:13.015Z,39.60
2022-11-24T08:55:37.973Z,40.57
2022-11-24T08:58:01.534Z,40.63
2022-11-24T09:00:25.212Z,40.23
2022-11-24T09:02:56.112Z,39.67
2022-11-24T09:05:50.132Z,40.50
2022-11-24T09:08:03.252Z,39.37
2022-11-24T09:10:26.730Z,37.87
2022-11-24T09:12:52.204Z,37.70
2022-11-24T09:15:17.116Z,36.73
2022-11-24T09:17:40.872Z,39.97
2022-11-24T09:20:05.164Z,38.20
2022-11-24T09:22:28.735Z,38.60
2022-11-24T09:24:52.223Z,39.23
2022-11-24T09:27:15.854Z,36.60
2022-11-24T09:29:40.742Z,37.80
2022-11-24T09:32:06.940Z,36.53
2022-11-24T09:34:30.842Z,37.10
2022-11-24T09:36:54.427Z,38.97
2022-11-24T09:39:18.035Z,37.87
2022-11-24T09:41:55.690Z,39.33
2022-11-24T09:45:03.049Z,38.07
2022-11-24T09:47:43.095Z,36.13
2022-11-24T09:50:11.900Z,37.87
2022-11-24T09:52:41.927Z,36.60
2022-11-24T09:55:19.693Z,35.60
2022-11-24T09:57:45.379Z,32.83
2022-11-24T10:00:14.965Z,33.90
2022-11-24T10:02:38.552Z,32.03
2022-11-24T10:05:02.150Z,31.98
2022-11-24T10:07:32.513Z,31.37
2022-11-24T10:10:05.759Z,31.27
2022-11-24T10:12:49.024Z,30.37
2022-11-24T10:15:35.036Z,30.43
2022-11-24T10:18:35.147Z,30.33
2022-11-24T10:21:14.843Z,32.23
2022-11-24T10:24:09.931Z,30.80
2022-11-24T10:26:39.168Z,30.93
2022-11-24T10:29:14.975Z,31.57
2022-11-24T10:31:43.078Z,32.23
2022-11-24T10:34:16.491Z,30.97
2022-11-24T10:36:49.364Z,33.15
2022-11-24T10:39:21.748Z,32.38
2022-11-24T10:41:52.675Z,34.17
2022-11-24T10:44:16.369Z,33.13
2022-11-24T10:46:41.958Z,34.78
2022-11-24T10:49:06.949Z,32.53
2022-11-24T10:51:45.609Z,31.93
2022-11-24T10:54:17.559Z,33.37
2022-11-24T10:56:41.972Z,32.50
2022-11-24T10:59:29.349Z,32.37
2022-11-24T11:01:55.646Z,31.75
2022-11-24T11:04:22.503Z,32.80
2022-11-24T11:06:46.153Z,31.77
2022-11-24T11:09:22.221Z,31.93
2022-11-24T11:11:48.299Z,31.85
2022-11-24T11:14:13.010Z,31.42
2022-11-24T11:16:39.569Z,32.83
2022-11-24T11:19:33.006Z,32.53
2022-11-24T11:22:00.540Z,30.02
2022-11-24T11:24:24.149Z,32.70
2022-11-24T11:26:47.705Z,32.72
2022-11-24T11:34:53.627Z,32.13
2022-11-24T11:37:18.155Z,35.47
2022-11-24T11:39:48.681Z,34.25
2022-11-24T11:42:59.945Z,34.35
2022-11-24T11:45:14.484Z,31.45
2022-11-24T11:47:46.305Z,32.63
2022-11-24T11:50:18.648Z,33.65
2022-11-24T11:53:07.450Z,33.20
2022-11-24T11:55:51.362Z,34.97
2022-11-24T11:58:43.883Z,31.75
2022-11-24T12:01:19.605Z,32.03
2022-11-24T12:03:58.925Z,31.30
2022-11-24T12:06:43.219Z,31.90
2022-11-24T12:09:21.512Z,31.52
2022-11-24T12:11:53.349Z,30.90
2022-11-24T12:14:32.111Z,32.50
2022-11-24T12:17:07.099Z,32.35
2022-11-24T12:19:46.724Z,32.13
2022-11-24T12:22:21.997Z,31.83
2022-11-24T12:24:54.462Z,33.67
2022-11-24T12:27:29.883Z,32.67
2022-11-24T12:30:11.105Z,32.08
2022-11-24T12:33:00.194Z,31.55
2022-11-24T12:35:31.389Z,31.88
2022-11-24T12:38:11.116Z,31.65
2022-11-24T12:41:06.478Z,31.23
2022-11-24T12:43:38.354Z,30.88
2022-11-24T12:46:16.864Z,31.02
2022-11-24T12:48:53.983Z,31.50
2022-11-24T12:51:20.479Z,31.00
2022-11-24T12:53:47.346Z,32.83
2022-11-24T12:56:15.942Z,31.23
2022-11-24T12:58:50.372Z,31.27
2022-11-24T13:01:26.277Z,31.42
2022-11-24T13:04:09.002Z,33.00
2022-11-24T13:06:49.038Z,31.50
2022-11-24T13:09:15.767Z,32.33
2022-11-24T13:11:45.437Z,32.53
2022-11-24T13:14:19.887Z,33.00
2022-11-24T13:19:39.841Z,33.20
2022-11-24T13:22:16.612Z,31.63
2022-11-24T13:24:42.376Z,32.30
2022-11-24T13:27:45.149Z,32.92
2022-11-24T13:30:54.874Z,32.67
2022-11-24T13:33:39.827Z,32.65
2022-11-24T13:36:35.599Z,32.33
2022-11-24T13:38:59.866Z,34.15
2022-11-24T13:42:10.007Z,31.83
2022-11-24T13:44:55.537Z,32.22
2022-11-24T13:47:41.781Z,32.97
2022-11-24T13:50:08.578Z,34.03
2022-11-24T13:52:46.170Z,33.03
2022-11-24T13:55:29.075Z,32.83
2022-11-24T13:57:57.963Z,32.22
2022-11-24T14:00:25.212Z,31.92
2022-11-24T14:02:49.277Z,32.95
2022-11-24T14:05:15.609Z,33.17
2022-11-24T14:07:42.117Z,32.08
2022-11-24T14:10:07.507Z,32.55
2022-11-24T14:12:33.807Z,31.30
2022-11-24T14:15:24.504Z,31.52
2022-11-24T14:17:48.098Z,31.83
2022-11-24T14:20:24.245Z,31.48
2022-11-24T14:22:47.895Z,31.67
2022-11-24T14:25:25.969Z,31.77
2022-11-24T14:27:49.610Z,31.08
2022-11-24T14:30:23.083Z,30.98
2022-11-24T14:32:56.267Z,30.63
2022-11-24T14:35:25.860Z,31.45
2022-11-24T14:37:49.429Z,30.52
2022-11-24T14:40:42.084Z,32.13
2022-11-24T14:43:06.049Z,30.90
2022-11-24T14:45:31.011Z,30.23
2022-11-24T14:47:55.677Z,30.67
2022-11-24T14:50:24.262Z,32.15
2022-11-24T14:52:55.488Z,31.45
2022-11-24T14:55:28.772Z,30.08
2022-11-24T14:57:52.408Z,32.35
2022-11-24T15:00:20.959Z,31.20
2022-11-24T15:02:49.700Z,32.70
2022-11-24T15:05:13.672Z,33.10
2022-11-24T15:07:39.779Z,32.83
2022-11-24T15:10:05.996Z,31.13
2022-11-24T15:12:34.348Z,30.63
2022-11-24T15:15:02.280Z,31.58
2022-11-24T15:17:29.175Z,33.13
2022-11-24T15:19:59.703Z,31.75
2022-11-24T15:22:40.728Z,32.00
2022-11-24T15:25:25.602Z,31.65
2022-11-24T15:27:49.222Z,29.58
2022-11-24T15:30:14.597Z,30.77
2022-11-24T15:32:38.159Z,32.95
2022-11-24T15:35:03.072Z,32.67
2022-11-24T15:37:30.050Z,32.63
2022-11-24T15:39:57.528Z,33.97
2022-11-24T15:42:21.102Z,31.88
2022-11-24T15:44:44.725Z,32.35
2022-11-24T15:47:09.249Z,32.15
2022-11-24T15:49:32.903Z,33.40
2022-11-24T15:51:57.889Z,35.63
2022-11-24T15:54:21.535Z,36.92
2022-11-24T15:56:45.139Z,30.20
2022-11-24T15:59:18.757Z,32.70
2022-11-24T16:01:46.297Z,32.90
2022-11-24T16:04:12.400Z,32.78
2022-11-24T16:06:36.102Z,34.47
2022-11-24T16:09:01.514Z,37.50
2022-11-24T16:11:25.311Z,38.90
2022-11-24T16:13:53.065Z,36.03
2022-11-24T16:16:17.527Z,35.15
2022-11-24T16:18:41.711Z,53.35
2022-11-24T16:21:05.399Z,54.67
2022-11-24T16:23:28.923Z,33.97
2022-11-24T16:25:54.273Z,35.40
2022-11-24T16:28:17.947Z,33.03
2022-11-24T16:30:41.557Z,38.35
2022-11-24T16:33:05.701Z,44.47
2022-11-24T16:35:29.345Z,38.58
2022-11-24T16:37:52.966Z,39.30
2022-11-24T16:40:18.209Z,40.42
2022-11-24T16:42:43.203Z,40.53
2022-11-24T16:45:08.065Z,44.13
2022-11-24T16:47:31.562Z,40.92
2022-11-24T16:49:55.105Z,43.00
2022-11-24T16:52:19.270Z,41.47
2022-11-24T16:54:42.970Z,43.55
2022-11-24T16:57:11.705Z,42.63
2022-11-24T16:59:40.044Z,42.35
2022-11-24T17:02:03.571Z,40.53
2022-11-24T17:04:27.363Z,40.78
2022-11-24T17:06:50.995Z,38.80
2022-11-24T17:09:14.632Z,40.28
2022-11-24T17:11:38.156Z,38.50
2022-11-24T17:14:03.025Z,40.30
2022-11-24T17:16:28.480Z,37.93
2022-11-24T17:18:52.991Z,38.13
2022-11-24T17:21:18.739Z,38.67
2022-11-24T17:23:42.402Z,37.97
2022-11-24T17:26:08.606Z,37.37
2022-11-24T17:28:32.310Z,38.42
2022-11-24T17:30:55.871Z,38.97
2022-11-24T17:33:20.787Z,37.40
2022-11-24T17:35:44.313Z,36.95
2022-11-24T17:38:07.853Z,36.83
2022-11-24T17:40:31.536Z,37.60
2022-11-24T17:42:55.164Z,38.03
2022-11-24T17:45:18.675Z,35.95
2022-11-24T17:47:42.379Z,36.33
2022-11-24T17:50:09.124Z,39.08
2022-11-24T17:52:32.658Z,39.17
2022-11-24T17:54:56.160Z,39.93
2022-11-24T17:57:19.751Z,38.33
2022-11-24T17:59:43.859Z,36.60
2022-11-24T18:02:07.868Z,38.33
2022-11-24T18:04:31.511Z,38.33
2022-11-24T18:06:56.491Z,39.73
2022-11-24T18:09:19.980Z,39.63
2022-11-24T18:11:43.741Z,40.93
2022-11-24T18:14:07.268Z,38.78
2022-11-24T18:16:32.416Z,39.70
2022-11-24T18:19:07.779Z,39.40
2022-11-24T18:21:32.182Z,37.83
2022-11-24T18:23:57.213Z,39.47
2022-11-24T18:26:21.228Z,37.17
2022-11-24T18:28:45.956Z,37.93
2022-11-24T18:31:13.099Z,38.33
2022-11-24T18:33:38.598Z,38.73
2022-11-24T18:36:05.078Z,37.50
2022-11-24T18:38:29.656Z,38.87
2022-11-24T18:41:00.525Z,36.77
2022-11-24T18:43:24.955Z,36.33
2022-11-24T18:45:48.491Z,36.70
2022-11-24T18:48:12.139Z,36.35
2022-11-24T18:50:36.372Z,38.80
2022-11-24T18:52:59.907Z,36.33
2022-11-24T18:55:23.438Z,37.73
2022-11-24T18:57:48.394Z,39.93
2022-11-24T19:00:14.090Z,38.37
2022-11-24T19:02:37.720Z,37.27
2022-11-24T19:05:01.440Z,35.97
2022-11-24T19:07:25.031Z,35.27
2022-11-24T19:09:48.672Z,36.00
2022-11-24T19:12:12.357Z,37.90
2022-11-24T19:14:37.425Z,35.53
2022-11-24T19:17:02.910Z,42.10
2022-11-24T19:19:26.537Z,41.17
2022-11-24T19:21:50.096Z,42.63
2022-11-24T19:24:14.231Z,41.13
2022-11-24T19:26:38.858Z,43.87
2022-11-24T19:29:02.345Z,39.60
2022-11-24T19:31:27.500Z,40.57
2022-11-24T19:33:52.886Z,37.93
2022-11-24T19:36:19.271Z,39.43
2022-11-24T19:38:43.845Z,43.13
2022-11-24T19:41:09.884Z,44.27
2022-11-24T19:43:34.268Z,40.93
2022-11-24T19:46:02.546Z,39.97
2022-11-24T19:48:27.512Z,42.50
2022-11-24T19:50:51.094Z,43.40
2022-11-24T19:53:14.615Z,39.87
2022-11-24T19:55:38.188Z,42.57
2022-11-24T19:58:01.660Z,45.43
2022-11-24T20:00:30.613Z,43.00
2022-11-24T20:02:55.476Z,43.00
2022-11-24T20:05:20.413Z,42.83
2022-11-24T20:07:44.017Z,42.47
2022-11-24T20:10:09.544Z,44.20
2022-11-24T20:12:34.535Z,46.30
2022-11-24T20:14:58.113Z,49.93
2022-11-24T20:17:21.742Z,43.67
2022-11-24T20:19:45.260Z,42.77
2022-11-24T20:22:10.229Z,47.03
2022-11-24T20:24:33.860Z,52.77
2022-11-24T20:27:00.162Z,49.50
2022-11-24T20:29:23.902Z,57.43
2022-11-24T20:31:50.637Z,51.93
2022-11-24T20:34:15.710Z,46.87
2022-11-24T20:36:41.448Z,46.00
2022-11-24T20:39:09.317Z,46.10
2022-11-24T20:41:35.649Z,47.47
2022-11-24T20:44:01.673Z,51.57
2022-11-24T20:46:28.437Z,54.50
2022-11-24T20:48:52.909Z,46.67
2022-11-24T20:51:21.452Z,51.60
2022-11-24T20:53:45.315Z,43.40
2022-11-24T20:56:13.079Z,44.70
2022-11-24T20:58:38.242Z,45.13
2022-11-24T21:01:06.230Z,43.03
2022-11-24T21:03:29.893Z,44.13
2022-11-24T21:05:56.692Z,49.33
2022-11-24T21:08:20.204Z,47.37
2022-11-24T21:10:43.757Z,43.83
2022-11-24T21:13:08.695Z,45.57
2022-11-24T21:15:32.241Z,45.57
2022-11-24T21:17:55.741Z,48.77
2022-11-24T21:20:19.369Z,47.87
2022-11-24T21:22:42.844Z,42.30
2022-11-24T21:25:07.345Z,44.13
2022-11-24T21:27:30.875Z,46.60
2022-11-24T21:29:55.865Z,43.33
2022-11-24T21:32:19.430Z,44.80
2022-11-24T21:34:43.034Z,46.07
2022-11-24T21:37:07.111Z,49.03
2022-11-24T21:39:30.754Z,54.13
2022-11-24T21:41:54.293Z,48.80
2022-11-24T21:44:18.015Z,44.97
2022-11-24T21:46:48.074Z,45.37
2022-11-24T21:49:14.704Z,49.33
2022-11-24T21:51:38.276Z,49.43
2022-11-24T21:54:01.865Z,47.40
2022-11-24T21:56:25.921Z,50.53
2022-11-24T21:58:51.929Z,48.13
2022-11-24T22:01:16.746Z,52.00
2022-11-24T22:03:41.793Z,49.03
2022-11-24T22:06:05.661Z,51.20
2022-11-24T22:08:31.122Z,54.07
2022-11-24T22:10:55.751Z,50.13
2022-11-24T22:13:19.533Z,52.37
2022-11-24T22:15:43.227Z,52.33
2022-11-24T22:18:06.978Z,54.37
2022-11-24T22:20:32.075Z,53.53
2022-11-24T22:22:55.659Z,52.57
2022-11-24T22:25:19.159Z,54.33
2022-11-24T22:27:42.937Z,53.90
2022-11-24T22:30:08.402Z,50.90
2022-11-24T22:32:31.954Z,52.60
2022-11-24T22:34:55.474Z,53.83
2022-11-24T22:37:20.486Z,52.60
2022-11-24T22:39:44.049Z,51.70
2022-11-24T22:42:07.667Z,53.47
2022-11-24T22:44:31.203Z,55.60
2022-11-24T22:46:54.743Z,59.20
2022-11-24T22:49:18.259Z,58.77
2022-11-24T22:51:41.822Z,58.47
2022-11-24T22:54:07.383Z,58.13
2022-11-24T22:56:32.421Z,58.20
2022-11-24T22:58:56.144Z,58.30
2022-11-24T23:01:22.298Z,57.73
2022-11-24T23:03:46.434Z,56.57
2022-11-24T23:06:13.776Z,56.00
2022-11-24T23:08:37.909Z,54.57
2022-11-24T23:11:05.309Z,53.90
2022-11-24T23:13:29.109Z,54.93
2022-11-24T23:15:52.750Z,53.93
2022-11-24T23:18:16.239Z,56.13
2022-11-24T23:20:39.843Z,56.77
2022-11-24T23:23:03.339Z,56.47
2022-11-24T23:25:26.985Z,55.60
2022-11-24T23:27:51.940Z,56.57
2022-11-24T23:30:15.870Z,55.33
2022-11-24T23:32:40.168Z,57.03
2022-11-24T23:35:03.731Z,56.63
2022-11-24T23:37:45.704Z,52.30
2022-11-24T23:40:11.380Z,52.13
2022-11-24T23:42:34.914Z,54.43
2022-11-24T23:44:59.892Z,52.60
2022-11-24T23:47:23.628Z,53.60
2022-11-24T23:49:47.185Z,54.63
2022-11-24T23:52:10.728Z,53.43
2022-11-24T23:54:34.571Z,50.87
2022-11-24T23:56:58.239Z,49.33
2022-11-24T23:59:22.848Z,55.87
